Terminal Aerodrome Forecast
Issued by NWS

Home | Current Version | Previous Version | Text Only | Print | Product List | Glossary On
Versions: 1 2 3 4 5 6 7 8 9 10
000
FTUS43 KMPX 272300
TAFRWF
TAF
KRWF 272326Z 2800/2824 23008KT P6SM SKC
     FM280300 24008KT P6SM SCT070
     FM281200 34005KT P6SM SCT015 BKN025
     FM282300 36005KT P6SM SKC=

USA.gov is the U.S. government's official web portal to all federal, state and local government web resources and services.